Essex, MA (01929)

2:20 PM EDT on September 04, 2015 (GMT -0400)
Sagamore Street | | Change Station
CLOSE
Current Station
Personal Weather Station
Location: Hamilton, MA
Elevation: 98 ft
Nearby Weather Stations

Elev 98 ft 42.63 °N, 70.83 °W | Updated 3 minutes ago

Overcast
Overcast
68.9 °F
Feels Like 68.9 °F
N
1.7
Wind Variable Wind from South

Today
High -- | Low -- °F
--% Chance of Precip.
Yesterday
High -- | Low -- °F
Precip. -- in
6:10 AM 7:12 PM
Waning Gibbous, 57% visible
Pressure 30.19 in
Visibility 10.0 miles
Clouds Overcast 1700 ft
Dew Point 61 °F
Humidity 76%
Rainfall 0.00 in
Snow Depth Not available.
UV 2 out of 12
Pollen 8.50 out of 12
Air Quality Not available.
Flu Activity Not available.
METAR KBVY 041753Z 06008KT 10SM OVC017 19/14 A3020 RMK AO2 SLP222 T01940139 10206 20189 51009
Pressure 30.19 in
Visibility 10.0 miles
Clouds Overcast 1700 ft
Dew Point 61 °F
Humidity 76%
Rainfall 0.00 in
Snow Depth Not available.
UV 2 out of 12
Pollen 8.50 out of 12
Air Quality Not available.
Flu Activity Not available.
METAR KBVY 041753Z 06008KT 10SM OVC017 19/14 A3020 RMK AO2 SLP222 T01940139 10206 20189 51009

10-Day Weather Forecast

×

Almanac

Astronomy

Sep. 04, 2015 Rise Set
Actual Time
Civil Twilight
Nautical Twilight
Astronomical Twilight
Moon
Length of Visible Light
Length of Day
Tomorrow will be .
, % of the Moon is Illuminated

Today's Extremes

State Highs State Lows

Community

WunderPhotos

Upload Photos

1,852,251 photos uploaded!

WunderBlogs® & News

Nearby

Air Quality

  Air Quality AQ Index Pollutant
Not available.

Snow Depth

Station Depth Elevation

Earthquake Activity

City Distance Mag. Time & Date
Minimum magnitude displayed is 2.5.

Coastal Water Temperatures

Place Temperature

Stations

Nearby Weather Stations

Station Location Temp. Windchill Dew Point Humidity Wind Precip. Elev Updated Type